Darstellungsparameter: Aktuell verwendete Einstellungen:
Skalierung der Graphiken ... ?
xyx+y,   Skalierungsfaktor:      Skalierung: Modus: x, Faktor: 1
Darstellungszeitraum ... ?
Vom - - bis: - -   Zeitraum: 17.08.2018 - 17.08.2018
Min/Max/Avg-Anzeige ... ?
Zeige MMA aktuell
Zeige MMA Monat
Zeige MMA alles
Zeige --A aktuell
Zeige --A Monat
Zeige --A alles
Keine MMA-Anzeige
MMA:
Keine MMA-Graphiken
MMA-Basis: 17.08.2018 - 17.08.2018
Quicknavigation für Darstellung... ?
Tage:      1T, 2T, 3T, 5T -1T -2T -3T -5T +1T +2T +3T +5T
Wochen: 1W, 2W, 3W -1W -2W -3W +1W +2W +3W
Monate: 1M, 3M, 6M -1M -3M -6M +1M +3M +6M
Jahre:    1J, 3J, 5J, 10J -1J -3J -5J -10J +1J +3J +5J +10J
Nutze für die Darstellung ... ?
Originaldaten oder Mittelwerte auf ...
Stundenbasis Tagesbasis Wochenbasis
Monatsbasis Jahresbasis      Datenbasis: Original-Daten
Darstellen als:
Statistik (Auto) Statistik J:M      Darstellung:
Zur Graphik,    zurück zur Übersicht aller Sensoren.
 
Tabellarische Datenbersicht: ?
 
Sensor: Nr:Datum:Temp:Feuchte:Taupunkt:
Aussen-T/F 1 17-08-2018 00:00:00 19.3 C 78 % 15.37 C
2 17-08-2018 00:05:00 19.3 C 79 % 15.57 C
3 17-08-2018 00:10:00 19.2 C 78 % 15.27 C
4 17-08-2018 00:15:00 19.2 C 79 % 15.47 C
5 17-08-2018 00:20:00 19.2 C 79 % 15.47 C
6 17-08-2018 00:25:00 19 C 79 % 15.28 C
7 17-08-2018 00:30:00 18.9 C 79 % 15.18 C
8 17-08-2018 00:35:00 18.7 C 80 % 15.18 C
9 17-08-2018 00:40:00 18.6 C 81 % 15.28 C
10 17-08-2018 00:45:00 18.4 C 81 % 15.08 C
11 17-08-2018 00:50:00 18.4 C 82 % 15.27 C
12 17-08-2018 00:55:00 18.2 C 82 % 15.08 C
13 17-08-2018 01:00:00 18.1 C 82 % 14.98 C
14 17-08-2018 01:05:00 17.9 C 82 % 14.78 C
15 17-08-2018 01:10:00 17.8 C 83 % 14.88 C
16 17-08-2018 01:15:00 17.8 C 83 % 14.88 C
17 17-08-2018 01:20:00 17.7 C 83 % 14.78 C
18 17-08-2018 01:25:00 17.7 C 84 % 14.96 C
19 17-08-2018 01:30:00 17.6 C 84 % 14.87 C
20 17-08-2018 01:35:00 17.6 C 84 % 14.87 C
21 17-08-2018 01:40:00 17.5 C 84 % 14.77 C
22 17-08-2018 01:45:00 17.4 C 84 % 14.67 C
23 17-08-2018 01:50:00 17.4 C 84 % 14.67 C
24 17-08-2018 01:55:00 17.3 C 85 % 14.76 C
25 17-08-2018 02:00:00 17.3 C 85 % 14.76 C
Sensor: Nr:Datum:Temp:Feuchte:Taupunkt:
Aussen-T/F 26 17-08-2018 02:05:00 17.3 C 85 % 14.76 C
27 17-08-2018 02:10:00 17.2 C 85 % 14.66 C
28 17-08-2018 02:15:00 17.2 C 85 % 14.66 C
29 17-08-2018 02:20:00 17.1 C 85 % 14.56 C
30 17-08-2018 02:25:00 17 C 85 % 14.46 C
31 17-08-2018 02:30:00 16.9 C 86 % 14.54 C
32 17-08-2018 02:35:00 16.8 C 86 % 14.45 C
33 17-08-2018 02:40:00 16.8 C 86 % 14.45 C
34 17-08-2018 02:45:00 16.7 C 86 % 14.35 C
35 17-08-2018 02:50:00 16.6 C 86 % 14.25 C
36 17-08-2018 02:55:00 16.6 C 86 % 14.25 C
37 17-08-2018 03:00:00 16.5 C 87 % 14.33 C
38 17-08-2018 03:05:00 16.5 C 87 % 14.33 C
39 17-08-2018 03:10:00 16.4 C 87 % 14.23 C
40 17-08-2018 03:15:00 16.3 C 87 % 14.13 C
41 17-08-2018 03:20:00 16.3 C 87 % 14.13 C
42 17-08-2018 03:25:00 16.2 C 87 % 14.03 C
43 17-08-2018 03:30:00 16.2 C 87 % 14.03 C
44 17-08-2018 03:35:00 16.2 C 88 % 14.21 C
45 17-08-2018 03:40:00 16.1 C 88 % 14.11 C
46 17-08-2018 03:45:00 16.1 C 88 % 14.11 C
47 17-08-2018 03:50:00 16.1 C 88 % 14.11 C
48 17-08-2018 03:55:00 16 C 88 % 14.01 C
49 17-08-2018 04:00:00 16 C 88 % 14.01 C
50 17-08-2018 04:05:00 16.1 C 88 % 14.11 C
Sensor: Nr:Datum:Temp:Feuchte:Taupunkt:
Aussen-T/F 51 17-08-2018 04:10:00 16 C 88 % 14.01 C
52 17-08-2018 04:15:00 15.9 C 88 % 13.92 C
53 17-08-2018 04:20:00 15.9 C 88 % 13.92 C
54 17-08-2018 04:25:00 15.9 C 88 % 13.92 C
55 17-08-2018 04:30:00 15.9 C 88 % 13.92 C
56 17-08-2018 04:35:00 15.8 C 88 % 13.82 C
57 17-08-2018 04:40:00 15.9 C 89 % 14.09 C
58 17-08-2018 04:45:00 15.9 C 89 % 14.09 C
59 17-08-2018 04:50:00 15.9 C 88 % 13.92 C
60 17-08-2018 04:55:00 15.9 C 88 % 13.92 C
61 17-08-2018 05:00:00 15.8 C 88 % 13.82 C
62 17-08-2018 05:05:00 15.8 C 89 % 13.99 C
63 17-08-2018 05:10:00 15.8 C 89 % 13.99 C
64 17-08-2018 05:15:00 15.8 C 89 % 13.99 C
65 17-08-2018 05:20:00 15.8 C 89 % 13.99 C
66 17-08-2018 05:25:00 15.8 C 89 % 13.99 C
67 17-08-2018 05:30:00 15.9 C 90 % 14.26 C
68 17-08-2018 05:35:00 16.1 C 90 % 14.46 C
69 17-08-2018 05:40:00 16.2 C 90 % 14.56 C
70 17-08-2018 05:45:00 16.3 C 89 % 14.48 C
71 17-08-2018 05:50:00 16.4 C 89 % 14.58 C
72 17-08-2018 05:55:00 16.6 C 89 % 14.78 C
73 17-08-2018 06:00:00 16.8 C 88 % 14.8 C
74 17-08-2018 06:05:00 16.9 C 87 % 14.72 C
75 17-08-2018 06:10:00 17 C 87 % 14.82 C
Sensor: Nr:Datum:Temp:Feuchte:Taupunkt:
Aussen-T/F 76 17-08-2018 06:15:00 17.1 C 87 % 14.92 C
77 17-08-2018 06:20:00 17.1 C 87 % 14.92 C
78 17-08-2018 06:25:00 17.1 C 86 % 14.74 C
79 17-08-2018 06:30:00 17.1 C 86 % 14.74 C
80 17-08-2018 06:35:00 17.1 C 86 % 14.74 C
81 17-08-2018 06:40:00 17.1 C 87 % 14.92 C
82 17-08-2018 06:45:00 17.1 C 87 % 14.92 C
83 17-08-2018 06:50:00 17.2 C 87 % 15.02 C
84 17-08-2018 06:55:00 17.3 C 86 % 14.94 C
85 17-08-2018 07:00:00 17.4 C 86 % 15.03 C
86 17-08-2018 07:05:00 17.4 C 86 % 15.03 C
87 17-08-2018 07:10:00 17.6 C 86 % 15.23 C
88 17-08-2018 07:15:00 17.6 C 86 % 15.23 C
89 17-08-2018 07:20:00 17.6 C 86 % 15.23 C
90 17-08-2018 07:25:00 17.6 C 86 % 15.23 C
91 17-08-2018 07:30:00 17.6 C 86 % 15.23 C
92 17-08-2018 07:35:00 17.7 C 86 % 15.33 C
93 17-08-2018 07:40:00 17.7 C 86 % 15.33 C
94 17-08-2018 07:45:00 17.8 C 86 % 15.43 C
95 17-08-2018 07:50:00 17.8 C 86 % 15.43 C
96 17-08-2018 07:55:00 17.8 C 86 % 15.43 C
97 17-08-2018 08:00:00 17.9 C 86 % 15.53 C
98 17-08-2018 08:05:00 17.9 C 86 % 15.53 C
99 17-08-2018 08:10:00 18 C 86 % 15.62 C
100 17-08-2018 08:15:00 18 C 85 % 15.44 C
Sensor: Nr:Datum:Temp:Feuchte:Taupunkt:
Aussen-T/F 101 17-08-2018 08:20:00 18.1 C 85 % 15.54 C
102 17-08-2018 08:25:00 18.1 C 85 % 15.54 C
103 17-08-2018 08:30:00 18.1 C 85 % 15.54 C
104 17-08-2018 08:35:00 18.1 C 85 % 15.54 C
105 17-08-2018 08:40:00 18.2 C 85 % 15.64 C
106 17-08-2018 08:45:00 18.3 C 84 % 15.55 C
107 17-08-2018 08:50:00 18.4 C 84 % 15.65 C
108 17-08-2018 08:55:00 18.6 C 84 % 15.84 C
109 17-08-2018 09:00:00 18.7 C 83 % 15.75 C
110 17-08-2018 09:05:00 18.8 C 83 % 15.85 C
111 17-08-2018 09:10:00 18.9 C 83 % 15.95 C
112 17-08-2018 09:15:00 19.1 C 82 % 15.96 C
113 17-08-2018 09:20:00 19.2 C 82 % 16.05 C
114 17-08-2018 09:25:00 19.2 C 82 % 16.05 C
115 17-08-2018 09:30:00 19.3 C 81 % 15.96 C
116 17-08-2018 09:35:00 19.3 C 81 % 15.96 C
117 17-08-2018 09:40:00 19.4 C 81 % 16.06 C
118 17-08-2018 09:45:00 19.4 C 80 % 15.86 C
119 17-08-2018 09:50:00 19.6 C 79 % 15.86 C
120 17-08-2018 09:55:00 19.7 C 79 % 15.96 C
121 17-08-2018 10:00:00 19.8 C 78 % 15.85 C
122 17-08-2018 10:05:00 20 C 78 % 16.05 C
123 17-08-2018 10:10:00 20.2 C 77 % 16.04 C
124 17-08-2018 10:15:00 20.2 C 77 % 16.04 C
125 17-08-2018 10:20:00 20.3 C 77 % 16.14 C
Sensor: Nr:Datum:Temp:Feuchte:Taupunkt:
Aussen-T/F 126 17-08-2018 10:25:00 20.3 C 77 % 16.14 C
127 17-08-2018 10:30:00 20.2 C 77 % 16.04 C
128 17-08-2018 10:35:00 20.2 C 77 % 16.04 C
129 17-08-2018 10:40:00 20.3 C 78 % 16.34 C
130 17-08-2018 10:45:00 20.6 C 76 % 16.22 C
131 17-08-2018 10:50:00 20.8 C 75 % 16.21 C
132 17-08-2018 10:55:00 21.1 C 74 % 16.29 C
133 17-08-2018 11:00:00 21.2 C 74 % 16.38 C
134 17-08-2018 11:05:00 21.3 C 73 % 16.26 C
135 17-08-2018 11:10:00 21.4 C 73 % 16.36 C
136 17-08-2018 11:15:00 21.5 C 72 % 16.24 C
137 17-08-2018 11:20:00 21.7 C 72 % 16.43 C
138 17-08-2018 11:25:00 21.8 C 72 % 16.53 C
139 17-08-2018 11:30:00 21.9 C 72 % 16.62 C
140 17-08-2018 11:35:00 21.9 C 71 % 16.4 C
141 17-08-2018 11:40:00 21.9 C 72 % 16.62 C
142 17-08-2018 11:45:00 22.1 C 71 % 16.6 C
143 17-08-2018 11:50:00 22.2 C 71 % 16.69 C
144 17-08-2018 11:55:00 22.4 C 70 % 16.66 C
145 17-08-2018 12:00:00 22.7 C 69 % 16.72 C
146 17-08-2018 12:05:00 22.9 C 69 % 16.91 C
147 17-08-2018 12:10:00 23.2 C 68 % 16.97 C
148 17-08-2018 12:15:00 23.3 C 67 % 16.83 C
149 17-08-2018 12:20:00 23.5 C 66 % 16.78 C
150 17-08-2018 12:25:00 23.6 C 68 % 17.35 C
Sensor: Nr:Datum:Temp:Feuchte:Taupunkt:
Aussen-T/F 151 17-08-2018 12:30:00 23.7 C 66 % 16.97 C
152 17-08-2018 12:35:00 23.7 C 66 % 16.97 C
153 17-08-2018 12:40:00 23.7 C 65 % 16.73 C
154 17-08-2018 12:45:00 23.6 C 65 % 16.64 C
155 17-08-2018 12:50:00 23.6 C 66 % 16.88 C
156 17-08-2018 12:55:00 23.6 C 66 % 16.88 C
157 17-08-2018 13:00:00 23.6 C 64 % 16.39 C
158 17-08-2018 13:05:00 23.6 C 65 % 16.64 C
159 17-08-2018 13:10:00 23.6 C 65 % 16.64 C
160 17-08-2018 13:15:00 23.6 C 64 % 16.39 C
161 17-08-2018 13:20:00 23.7 C 65 % 16.73 C
162 17-08-2018 13:25:00 23.7 C 65 % 16.73 C
163 17-08-2018 13:30:00 23.7 C 66 % 16.97 C
164 17-08-2018 13:35:00 23.6 C 67 % 17.11 C
165 17-08-2018 13:40:00 23.6 C 68 % 17.35 C
166 17-08-2018 13:45:00 23.7 C 68 % 17.44 C
167 17-08-2018 13:50:00 23.8 C 68 % 17.54 C
168 17-08-2018 13:55:00 23.8 C 67 % 17.3 C
169 17-08-2018 14:00:00 23.9 C 66 % 17.16 C
170 17-08-2018 14:05:00 24.1 C 67 % 17.59 C
171 17-08-2018 14:10:00 24.1 C 66 % 17.35 C
172 17-08-2018 14:15:00 24.1 C 65 % 17.11 C
173 17-08-2018 14:20:00 24.1 C 66 % 17.35 C
174 17-08-2018 14:25:00 24.1 C 65 % 17.11 C
175 17-08-2018 14:30:00 23.9 C 65 % 16.92 C
Sensor: Nr:Datum:Temp:Feuchte:Taupunkt:
Aussen-T/F 176 17-08-2018 14:35:00 23.8 C 66 % 17.07 C
177 17-08-2018 14:40:00 23.9 C 66 % 17.16 C
178 17-08-2018 14:45:00 23.9 C 65 % 16.92 C
179 17-08-2018 14:50:00 23.8 C 65 % 16.83 C
180 17-08-2018 14:55:00 23.6 C 66 % 16.88 C
181 17-08-2018 15:00:00 23.6 C 67 % 17.11 C
182 17-08-2018 15:05:00 23.6 C 66 % 16.88 C
183 17-08-2018 15:10:00 23.7 C 66 % 16.97 C
184 17-08-2018 15:15:00 23.8 C 65 % 16.83 C
185 17-08-2018 15:20:00 23.8 C 64 % 16.58 C
186 17-08-2018 15:25:00 23.6 C 65 % 16.64 C
187 17-08-2018 15:30:00 23.6 C 65 % 16.64 C
188 17-08-2018 15:35:00 23.6 C 65 % 16.64 C
189 17-08-2018 15:40:00 23.6 C 64 % 16.39 C
190 17-08-2018 15:45:00 23.7 C 64 % 16.49 C
191 17-08-2018 15:50:00 23.7 C 64 % 16.49 C
192 17-08-2018 15:55:00 23.8 C 65 % 16.83 C
193 17-08-2018 16:00:00 24.1 C 64 % 16.86 C
194 17-08-2018 16:05:00 24.2 C 63 % 16.71 C
195 17-08-2018 16:10:00 24.2 C 63 % 16.71 C
196 17-08-2018 16:15:00 23.9 C 62 % 16.18 C
197 17-08-2018 16:20:00 23.6 C 64 % 16.39 C
198 17-08-2018 16:25:00 23.2 C 65 % 16.26 C
199 17-08-2018 16:30:00 23.1 C 65 % 16.16 C
200 17-08-2018 16:35:00 22.9 C 66 % 16.21 C
Sensor: Nr:Datum:Temp:Feuchte:Taupunkt:
Aussen-T/F 201 17-08-2018 16:40:00 22.8 C 66 % 16.12 C
202 17-08-2018 16:45:00 22.7 C 66 % 16.02 C
203 17-08-2018 16:50:00 22.6 C 66 % 15.93 C
204 17-08-2018 16:55:00 22.4 C 66 % 15.74 C
205 17-08-2018 17:00:00 22.3 C 68 % 16.11 C
206 17-08-2018 17:05:00 22.3 C 69 % 16.34 C
207 17-08-2018 17:10:00 22.3 C 68 % 16.11 C
208 17-08-2018 17:15:00 22.4 C 69 % 16.43 C
209 17-08-2018 17:20:00 22.8 C 67 % 16.35 C
210 17-08-2018 17:25:00 23.1 C 65 % 16.16 C
211 17-08-2018 17:30:00 23.1 C 65 % 16.16 C
212 17-08-2018 17:35:00 22.9 C 66 % 16.21 C
213 17-08-2018 17:40:00 22.7 C 67 % 16.26 C
214 17-08-2018 17:45:00 22.4 C 68 % 16.2 C
215 17-08-2018 17:50:00 22.3 C 68 % 16.11 C
216 17-08-2018 17:55:00 22.3 C 69 % 16.34 C
217 17-08-2018 18:00:00 22.3 C 69 % 16.34 C
218 17-08-2018 18:05:00 22.4 C 69 % 16.43 C
219 17-08-2018 18:10:00 22.4 C 69 % 16.43 C
220 17-08-2018 18:15:00 22.4 C 68 % 16.2 C
221 17-08-2018 18:20:00 22.4 C 68 % 16.2 C
222 17-08-2018 18:25:00 22.4 C 69 % 16.43 C
223 17-08-2018 18:30:00 22.4 C 68 % 16.2 C
224 17-08-2018 18:35:00 22.2 C 68 % 16.01 C
225 17-08-2018 18:40:00 21.9 C 69 % 15.96 C
Sensor: Nr:Datum:Temp:Feuchte:Taupunkt:
Aussen-T/F 226 17-08-2018 18:45:00 21.7 C 69 % 15.77 C
227 17-08-2018 18:50:00 21.7 C 70 % 15.99 C
228 17-08-2018 18:55:00 21.7 C 70 % 15.99 C
229 17-08-2018 19:00:00 21.7 C 70 % 15.99 C
230 17-08-2018 19:05:00 21.7 C 69 % 15.77 C
231 17-08-2018 19:10:00 21.7 C 69 % 15.77 C
232 17-08-2018 19:15:00 21.7 C 69 % 15.77 C
233 17-08-2018 19:20:00 21.6 C 69 % 15.67 C
234 17-08-2018 19:25:00 21.6 C 69 % 15.67 C
235 17-08-2018 19:30:00 21.6 C 69 % 15.67 C
236 17-08-2018 19:35:00 21.7 C 68 % 15.54 C
237 17-08-2018 19:40:00 21.7 C 68 % 15.54 C
238 17-08-2018 19:45:00 21.7 C 68 % 15.54 C
239 17-08-2018 19:50:00 21.7 C 68 % 15.54 C
240 17-08-2018 19:55:00 21.7 C 68 % 15.54 C
241 17-08-2018 20:00:00 21.7 C 68 % 15.54 C
242 17-08-2018 20:05:00 21.6 C 68 % 15.44 C
243 17-08-2018 20:10:00 21.4 C 69 % 15.48 C
244 17-08-2018 20:15:00 21.3 C 69 % 15.38 C
245 17-08-2018 20:20:00 21.2 C 68 % 15.06 C
246 17-08-2018 20:25:00 21.2 C 69 % 15.29 C
247 17-08-2018 20:30:00 21.1 C 68 % 14.97 C
248 17-08-2018 20:35:00 20.9 C 67 % 14.55 C
249 17-08-2018 20:40:00 20.8 C 68 % 14.68 C
250 17-08-2018 20:45:00 20.6 C 70 % 14.94 C
Sensor: Nr:Datum:Temp:Feuchte:Taupunkt:
Aussen-T/F 251 17-08-2018 20:50:00 20.4 C 70 % 14.75 C
252 17-08-2018 20:55:00 20.2 C 70 % 14.56 C
253 17-08-2018 21:00:00 20 C 72 % 14.8 C
254 17-08-2018 21:05:00 19.7 C 73 % 14.73 C
255 17-08-2018 21:10:00 19.4 C 74 % 14.65 C
256 17-08-2018 21:15:00 19.1 C 75 % 14.57 C
257 17-08-2018 21:20:00 18.9 C 76 % 14.58 C
258 17-08-2018 21:25:00 18.7 C 77 % 14.59 C
259 17-08-2018 21:30:00 18.6 C 77 % 14.49 C
260 17-08-2018 21:35:00 18.4 C 78 % 14.5 C
261 17-08-2018 21:40:00 18.3 C 78 % 14.4 C
262 17-08-2018 21:45:00 18.2 C 78 % 14.3 C
263 17-08-2018 21:50:00 18.1 C 79 % 14.4 C
264 17-08-2018 21:55:00 17.9 C 79 % 14.21 C
265 17-08-2018 22:00:00 17.9 C 79 % 14.21 C
266 17-08-2018 22:05:00 17.8 C 79 % 14.11 C
267 17-08-2018 22:10:00 17.7 C 79 % 14.01 C
268 17-08-2018 22:15:00 17.7 C 80 % 14.21 C
269 17-08-2018 22:20:00 17.6 C 80 % 14.11 C
270 17-08-2018 22:25:00 17.5 C 80 % 14.01 C
271 17-08-2018 22:30:00 17.4 C 80 % 13.92 C
272 17-08-2018 22:35:00 17.4 C 80 % 13.92 C
273 17-08-2018 22:40:00 17.3 C 80 % 13.82 C
274 17-08-2018 22:45:00 17.3 C 80 % 13.82 C
275 17-08-2018 22:50:00 17.2 C 80 % 13.72 C
Sensor: Nr:Datum:Temp:Feuchte:Taupunkt:
Aussen-T/F 276 17-08-2018 22:55:00 17.1 C 80 % 13.62 C
277 17-08-2018 23:00:00 17.1 C 80 % 13.62 C
278 17-08-2018 23:05:00 17 C 80 % 13.53 C
279 17-08-2018 23:10:00 16.9 C 80 % 13.43 C
280 17-08-2018 23:15:00 16.9 C 80 % 13.43 C
281 17-08-2018 23:20:00 16.8 C 80 % 13.33 C
282 17-08-2018 23:25:00 16.7 C 81 % 13.43 C
283 17-08-2018 23:30:00 16.7 C 81 % 13.43 C
284 17-08-2018 23:35:00 16.5 C 81 % 13.23 C
285 17-08-2018 23:40:00 16.4 C 82 % 13.32 C
286 17-08-2018 23:45:00 16.3 C 82 % 13.22 C
287 17-08-2018 23:50:00 16.3 C 82 % 13.22 C
288 17-08-2018 23:55:00 16.2 C 82 % 13.13 C

Legende:
   Min
   Max


Maximal/Minimal-Werte vom 17.08.2018 - 17.08.2018

Sensor Min Max Avg
Temp
(Aussen-T/F)
15.8 °C
17-08-2018  04:35:00
24.2 °C
17-08-2018  16:05:00
19.76 °C
Feuchte
(Aussen-T/F)
62 %
17-08-2018  16:15:00
90 %
17-08-2018  05:30:00
76.66 %
Taupunkt
(Aussen-T/F)
13.13 C
17-08-2018  23:55:00
17.59 C
17-08-2018  14:05:00
15.37 C

Die Daten stammen von einer Davis Vantage Pro 2 Wetter-Station und werden unter Linux mit der Software wview2wettercgi und aufbereitet. Alle Angaben erfolgen ohne Gewähr für ihre Vollständigkeit oder Richtigkeit.
Kontakt: Rainer Krienke krienke@uni-koblenz.de . Meine Webseiten an der Uni Koblenz oder privat.
Version: $Revision: 0.78 $